sensor_id;sensor_type;location;lat;lon;timestamp;P1;durP1;ratioP1;P2;durP2;ratioP2
23573;SDS011;11965;53.640;10.050;2023-01-23T00:00:53;2.93;;;2.92;;
23573;SDS011;11965;53.640;10.050;2023-01-23T00:03:20;3.16;;;3.14;;
23573;SDS011;11965;53.640;10.050;2023-01-23T00:05:55;2.87;;;2.85;;
23573;SDS011;11965;53.640;10.050;2023-01-23T00:08:23;2.77;;;2.75;;
23573;SDS011;11965;53.640;10.050;2023-01-23T00:10:50;2.69;;;2.67;;
23573;SDS011;11965;53.640;10.050;2023-01-23T00:13:17;4.09;;;4.09;;
23573;SDS011;11965;53.640;10.050;2023-01-23T00:15:45;7.39;;;7.39;;
23573;SDS011;11965;53.640;10.050;2023-01-23T00:18:15;9.23;;;9.11;;
23573;SDS011;11965;53.640;10.050;2023-01-23T00:20:41;10.59;;;10.27;;
23573;SDS011;11965;53.640;10.050;2023-01-23T00:23:09;8.63;;;8.47;;
23573;SDS011;11965;53.640;10.050;2023-01-23T00:25:36;6.04;;;5.95;;
23573;SDS011;11965;53.640;10.050;2023-01-23T00:28:03;5.12;;;5.06;;
23573;SDS011;11965;53.640;10.050;2023-01-23T00:30:30;5.29;;;5.23;;
23573;SDS011;11965;53.640;10.050;2023-01-23T00:32:57;8.11;;;8.04;;
23573;SDS011;11965;53.640;10.050;2023-01-23T00:35:26;8.88;;;8.71;;
23573;SDS011;11965;53.640;10.050;2023-01-23T00:37:53;4.96;;;4.89;;
23573;SDS011;11965;53.640;10.050;2023-01-23T00:40:20;3.98;;;3.95;;
23573;SDS011;11965;53.640;10.050;2023-01-23T00:42:47;4.00;;;3.98;;
23573;SDS011;11965;53.640;10.050;2023-01-23T00:45:15;3.43;;;3.41;;
23573;SDS011;11965;53.640;10.050;2023-01-23T00:47:42;3.44;;;3.43;;
23573;SDS011;11965;53.640;10.050;2023-01-23T00:50:09;3.21;;;3.21;;
23573;SDS011;11965;53.640;10.050;2023-01-23T00:52:38;3.24;;;3.22;;
23573;SDS011;11965;53.640;10.050;2023-01-23T00:55:06;3.05;;;3.04;;
23573;SDS011;11965;53.640;10.050;2023-01-23T00:57:34;2.93;;;2.93;;
23573;SDS011;11965;53.640;10.050;2023-01-23T01:00:01;2.93;;;2.93;;
23573;SDS011;11965;53.640;10.050;2023-01-23T01:02:30;2.79;;;2.78;;
23573;SDS011;11965;53.640;10.050;2023-01-23T01:04:57;2.72;;;2.70;;
23573;SDS011;11965;53.640;10.050;2023-01-23T01:07:23;2.70;;;2.69;;
23573;SDS011;11965;53.640;10.050;2023-01-23T01:09:52;2.62;;;2.60;;
23573;SDS011;11965;53.640;10.050;2023-01-23T01:12:19;2.29;;;2.26;;
23573;SDS011;11965;53.640;10.050;2023-01-23T01:14:46;2.44;;;2.42;;
23573;SDS011;11965;53.640;10.050;2023-01-23T01:17:13;2.39;;;2.39;;
23573;SDS011;11965;53.640;10.050;2023-01-23T01:19:40;2.21;;;2.21;;
23573;SDS011;11965;53.640;10.050;2023-01-23T01:22:08;2.35;;;2.35;;
23573;SDS011;11965;53.640;10.050;2023-01-23T01:24:35;2.40;;;2.40;;
23573;SDS011;11965;53.640;10.050;2023-01-23T01:27:03;2.23;;;2.23;;
23573;SDS011;11965;53.640;10.050;2023-01-23T01:29:31;2.46;;;2.46;;
23573;SDS011;11965;53.640;10.050;2023-01-23T01:31:59;2.29;;;2.29;;
23573;SDS011;11965;53.640;10.050;2023-01-23T01:34:26;2.83;;;2.83;;
23573;SDS011;11965;53.640;10.050;2023-01-23T01:36:53;2.64;;;2.64;;
23573;SDS011;11965;53.640;10.050;2023-01-23T01:39:20;2.67;;;2.67;;
23573;SDS011;11965;53.640;10.050;2023-01-23T01:41:47;2.80;;;2.80;;
23573;SDS011;11965;53.640;10.050;2023-01-23T01:44:16;3.13;;;3.13;;
23573;SDS011;11965;53.640;10.050;2023-01-23T01:46:45;3.36;;;3.36;;
23573;SDS011;11965;53.640;10.050;2023-01-23T01:49:14;3.35;;;3.35;;
23573;SDS011;11965;53.640;10.050;2023-01-23T01:51:46;3.66;;;3.66;;
23573;SDS011;11965;53.640;10.050;2023-01-23T01:54:22;3.58;;;3.58;;
23573;SDS011;11965;53.640;10.050;2023-01-23T01:56:55;3.60;;;3.60;;
23573;SDS011;11965;53.640;10.050;2023-01-23T01:59:31;3.87;;;3.87;;
23573;SDS011;11965;53.640;10.050;2023-01-23T02:02:09;4.19;;;4.19;;
23573;SDS011;11965;53.640;10.050;2023-01-23T02:04:40;4.11;;;4.11;;
23573;SDS011;11965;53.640;10.050;2023-01-23T02:07:13;4.58;;;4.58;;
23573;SDS011;11965;53.640;10.050;2023-01-23T02:09:47;4.52;;;4.52;;
23573;SDS011;11965;53.640;10.050;2023-01-23T02:12:15;4.99;;;4.99;;
23573;SDS011;11965;53.640;10.050;2023-01-23T02:14:44;4.97;;;4.97;;
23573;SDS011;11965;53.640;10.050;2023-01-23T02:17:11;5.23;;;5.23;;
23573;SDS011;11965;53.640;10.050;2023-01-23T02:19:39;5.43;;;5.43;;
23573;SDS011;11965;53.640;10.050;2023-01-23T02:22:18;5.53;;;5.53;;
23573;SDS011;11965;53.640;10.050;2023-01-23T02:25:01;5.55;;;5.55;;
23573;SDS011;11965;53.640;10.050;2023-01-23T02:27:36;5.58;;;5.58;;
23573;SDS011;11965;53.640;10.050;2023-01-23T02:30:07;5.00;;;5.00;;
23573;SDS011;11965;53.640;10.050;2023-01-23T02:32:35;5.14;;;5.14;;
23573;SDS011;11965;53.640;10.050;2023-01-23T02:35:04;5.31;;;5.31;;
23573;SDS011;11965;53.640;10.050;2023-01-23T02:37:38;5.14;;;5.14;;
23573;SDS011;11965;53.640;10.050;2023-01-23T02:40:10;5.34;;;5.34;;
23573;SDS011;11965;53.640;10.050;2023-01-23T02:42:40;5.47;;;5.47;;
23573;SDS011;11965;53.640;10.050;2023-01-23T02:45:14;5.12;;;5.12;;
23573;SDS011;11965;53.640;10.050;2023-01-23T02:47:41;5.66;;;5.66;;
23573;SDS011;11965;53.640;10.050;2023-01-23T02:50:11;5.96;;;5.96;;
23573;SDS011;11965;53.640;10.050;2023-01-23T02:52:38;5.73;;;5.73;;
23573;SDS011;11965;53.640;10.050;2023-01-23T02:55:05;6.21;;;6.21;;
23573;SDS011;11965;53.640;10.050;2023-01-23T02:57:32;5.82;;;5.82;;
23573;SDS011;11965;53.640;10.050;2023-01-23T03:00:02;5.95;;;5.95;;
23573;SDS011;11965;53.640;10.050;2023-01-23T03:02:49;6.03;;;6.03;;
23573;SDS011;11965;53.640;10.050;2023-01-23T03:05:17;6.16;;;6.16;;
23573;SDS011;11965;53.640;10.050;2023-01-23T03:07:44;5.85;;;5.85;;
23573;SDS011;11965;53.640;10.050;2023-01-23T03:10:11;5.75;;;5.75;;
23573;SDS011;11965;53.640;10.050;2023-01-23T03:12:41;6.19;;;6.19;;
23573;SDS011;11965;53.640;10.050;2023-01-23T03:15:11;5.91;;;5.91;;
23573;SDS011;11965;53.640;10.050;2023-01-23T03:17:38;6.15;;;6.15;;
23573;SDS011;11965;53.640;10.050;2023-01-23T03:20:05;6.72;;;6.72;;
23573;SDS011;11965;53.640;10.050;2023-01-23T03:22:33;6.14;;;6.14;;
23573;SDS011;11965;53.640;10.050;2023-01-23T03:25:00;5.97;;;5.97;;
23573;SDS011;11965;53.640;10.050;2023-01-23T03:27:27;6.17;;;6.17;;
23573;SDS011;11965;53.640;10.050;2023-01-23T03:29:56;6.23;;;6.23;;
23573;SDS011;11965;53.640;10.050;2023-01-23T03:32:43;5.88;;;5.88;;
23573;SDS011;11965;53.640;10.050;2023-01-23T03:35:13;6.01;;;6.01;;
23573;SDS011;11965;53.640;10.050;2023-01-23T03:37:43;5.82;;;5.82;;
23573;SDS011;11965;53.640;10.050;2023-01-23T03:40:14;5.96;;;5.96;;
23573;SDS011;11965;53.640;10.050;2023-01-23T03:43:00;5.77;;;5.77;;
23573;SDS011;11965;53.640;10.050;2023-01-23T03:45:29;5.66;;;5.66;;
23573;SDS011;11965;53.640;10.050;2023-01-23T03:47:58;5.84;;;5.84;;
23573;SDS011;11965;53.640;10.050;2023-01-23T03:50:29;5.52;;;5.52;;
23573;SDS011;11965;53.640;10.050;2023-01-23T03:52:56;5.69;;;5.69;;
23573;SDS011;11965;53.640;10.050;2023-01-23T03:55:24;5.21;;;5.21;;
23573;SDS011;11965;53.640;10.050;2023-01-23T03:57:52;5.47;;;5.47;;
23573;SDS011;11965;53.640;10.050;2023-01-23T04:00:30;5.50;;;5.50;;
23573;SDS011;11965;53.640;10.050;2023-01-23T04:03:05;5.47;;;5.47;;
23573;SDS011;11965;53.640;10.050;2023-01-23T04:05:35;5.30;;;5.30;;
23573;SDS011;11965;53.640;10.050;2023-01-23T04:08:03;5.16;;;5.16;;
23573;SDS011;11965;53.640;10.050;2023-01-23T04:10:31;5.12;;;5.12;;
23573;SDS011;11965;53.640;10.050;2023-01-23T04:13:05;4.92;;;4.92;;
23573;SDS011;11965;53.640;10.050;2023-01-23T04:15:32;5.07;;;5.07;;
23573;SDS011;11965;53.640;10.050;2023-01-23T04:18:03;4.88;;;4.88;;
23573;SDS011;11965;53.640;10.050;2023-01-23T04:20:32;4.60;;;4.60;;
23573;SDS011;11965;53.640;10.050;2023-01-23T04:22:59;4.75;;;4.75;;
23573;SDS011;11965;53.640;10.050;2023-01-23T04:25:28;4.87;;;4.87;;
23573;SDS011;11965;53.640;10.050;2023-01-23T04:27:55;5.01;;;5.01;;
23573;SDS011;11965;53.640;10.050;2023-01-23T04:30:22;4.93;;;4.93;;
23573;SDS011;11965;53.640;10.050;2023-01-23T04:32:49;5.07;;;5.07;;
23573;SDS011;11965;53.640;10.050;2023-01-23T04:35:18;5.54;;;5.54;;
23573;SDS011;11965;53.640;10.050;2023-01-23T04:37:47;5.65;;;5.65;;
23573;SDS011;11965;53.640;10.050;2023-01-23T04:40:15;5.60;;;5.60;;
23573;SDS011;11965;53.640;10.050;2023-01-23T04:42:52;5.46;;;5.46;;
23573;SDS011;11965;53.640;10.050;2023-01-23T04:45:32;5.34;;;5.34;;
23573;SDS011;11965;53.640;10.050;2023-01-23T04:48:22;5.41;;;5.41;;
23573;SDS011;11965;53.640;10.050;2023-01-23T04:50:51;5.68;;;5.68;;
23573;SDS011;11965;53.640;10.050;2023-01-23T04:53:20;5.83;;;5.83;;
23573;SDS011;11965;53.640;10.050;2023-01-23T04:55:54;6.28;;;6.28;;
23573;SDS011;11965;53.640;10.050;2023-01-23T04:58:21;6.41;;;6.35;;
23573;SDS011;11965;53.640;10.050;2023-01-23T05:00:48;6.87;;;6.87;;
23573;SDS011;11965;53.640;10.050;2023-01-23T05:03:21;7.04;;;7.04;;
23573;SDS011;11965;53.640;10.050;2023-01-23T05:05:49;7.12;;;7.12;;
23573;SDS011;11965;53.640;10.050;2023-01-23T05:08:16;7.14;;;7.14;;
23573;SDS011;11965;53.640;10.050;2023-01-23T05:10:51;7.07;;;7.07;;
23573;SDS011;11965;53.640;10.050;2023-01-23T05:13:19;7.27;;;7.27;;
23573;SDS011;11965;53.640;10.050;2023-01-23T05:15:46;7.48;;;7.48;;
23573;SDS011;11965;53.640;10.050;2023-01-23T05:18:13;7.86;;;7.86;;
23573;SDS011;11965;53.640;10.050;2023-01-23T05:20:40;7.76;;;7.76;;
23573;SDS011;11965;53.640;10.050;2023-01-23T05:23:07;7.83;;;7.83;;
23573;SDS011;11965;53.640;10.050;2023-01-23T05:25:43;8.26;;;8.26;;
23573;SDS011;11965;53.640;10.050;2023-01-23T05:28:12;8.16;;;8.15;;
23573;SDS011;11965;53.640;10.050;2023-01-23T05:30:45;8.08;;;8.01;;
23573;SDS011;11965;53.640;10.050;2023-01-23T05:33:19;8.05;;;8.05;;
23573;SDS011;11965;53.640;10.050;2023-01-23T05:35:46;8.26;;;8.26;;
23573;SDS011;11965;53.640;10.050;2023-01-23T05:38:13;8.31;;;8.31;;
23573;SDS011;11965;53.640;10.050;2023-01-23T05:40:42;8.34;;;8.34;;
23573;SDS011;11965;53.640;10.050;2023-01-23T05:43:38;8.87;;;8.87;;
23573;SDS011;11965;53.640;10.050;2023-01-23T05:46:05;9.10;;;9.10;;
23573;SDS011;11965;53.640;10.050;2023-01-23T05:48:42;8.76;;;8.76;;
23573;SDS011;11965;53.640;10.050;2023-01-23T05:51:10;8.60;;;8.60;;
23573;SDS011;11965;53.640;10.050;2023-01-23T05:53:37;8.85;;;8.83;;
23573;SDS011;11965;53.640;10.050;2023-01-23T05:56:04;8.81;;;8.81;;
23573;SDS011;11965;53.640;10.050;2023-01-23T05:58:38;9.10;;;9.10;;
23573;SDS011;11965;53.640;10.050;2023-01-23T06:01:17;8.94;;;8.94;;
23573;SDS011;11965;53.640;10.050;2023-01-23T06:04:11;8.96;;;8.96;;
23573;SDS011;11965;53.640;10.050;2023-01-23T06:06:59;8.98;;;8.98;;
23573;SDS011;11965;53.640;10.050;2023-01-23T06:09:26;9.26;;;9.26;;
23573;SDS011;11965;53.640;10.050;2023-01-23T06:11:53;9.07;;;9.07;;
23573;SDS011;11965;53.640;10.050;2023-01-23T06:14:22;9.30;;;9.30;;
23573;SDS011;11965;53.640;10.050;2023-01-23T06:16:49;8.62;;;8.62;;
23573;SDS011;11965;53.640;10.050;2023-01-23T06:19:16;9.48;;;9.48;;
23573;SDS011;11965;53.640;10.050;2023-01-23T06:21:42;9.03;;;9.03;;
23573;SDS011;11965;53.640;10.050;2023-01-23T06:24:09;9.69;;;9.69;;
23573;SDS011;11965;53.640;10.050;2023-01-23T06:26:36;9.05;;;8.98;;
23573;SDS011;11965;53.640;10.050;2023-01-23T06:29:04;9.35;;;9.34;;
23573;SDS011;11965;53.640;10.050;2023-01-23T06:31:32;9.37;;;9.37;;
23573;SDS011;11965;53.640;10.050;2023-01-23T06:34:00;9.04;;;9.04;;
23573;SDS011;11965;53.640;10.050;2023-01-23T06:36:31;9.29;;;9.29;;
23573;SDS011;11965;53.640;10.050;2023-01-23T06:38:59;10.14;;;10.06;;
23573;SDS011;11965;53.640;10.050;2023-01-23T06:41:32;9.53;;;9.53;;
23573;SDS011;11965;53.640;10.050;2023-01-23T06:44:02;9.39;;;9.39;;
23573;SDS011;11965;53.640;10.050;2023-01-23T06:46:29;9.72;;;9.72;;
23573;SDS011;11965;53.640;10.050;2023-01-23T06:48:57;9.41;;;9.41;;
23573;SDS011;11965;53.640;10.050;2023-01-23T06:51:26;9.42;;;9.42;;
23573;SDS011;11965;53.640;10.050;2023-01-23T06:53:55;10.10;;;10.10;;
23573;SDS011;11965;53.640;10.050;2023-01-23T06:56:22;9.88;;;9.87;;
23573;SDS011;11965;53.640;10.050;2023-01-23T06:58:50;9.79;;;9.78;;
23573;SDS011;11965;53.640;10.050;2023-01-23T07:01:30;10.03;;;9.95;;
23573;SDS011;11965;53.640;10.050;2023-01-23T07:04:07;10.46;;;10.46;;
23573;SDS011;11965;53.640;10.050;2023-01-23T07:06:35;10.21;;;10.17;;
23573;SDS011;11965;53.640;10.050;2023-01-23T07:09:02;10.03;;;10.03;;
23573;SDS011;11965;53.640;10.050;2023-01-23T07:11:30;10.07;;;10.07;;
23573;SDS011;11965;53.640;10.050;2023-01-23T07:13:57;10.26;;;10.26;;
23573;SDS011;11965;53.640;10.050;2023-01-23T07:16:26;10.74;;;10.74;;
23573;SDS011;11965;53.640;10.050;2023-01-23T07:18:55;10.42;;;10.42;;
23573;SDS011;11965;53.640;10.050;2023-01-23T07:21:24;10.14;;;10.14;;
23573;SDS011;11965;53.640;10.050;2023-01-23T07:23:51;10.50;;;10.50;;
23573;SDS011;11965;53.640;10.050;2023-01-23T07:26:18;10.49;;;10.49;;
23573;SDS011;11965;53.640;10.050;2023-01-23T07:28:45;10.99;;;10.99;;
23573;SDS011;11965;53.640;10.050;2023-01-23T07:31:12;11.47;;;11.47;;
23573;SDS011;11965;53.640;10.050;2023-01-23T07:33:39;11.21;;;11.21;;
23573;SDS011;11965;53.640;10.050;2023-01-23T07:36:06;11.55;;;11.48;;
23573;SDS011;11965;53.640;10.050;2023-01-23T07:38:36;12.16;;;12.04;;
23573;SDS011;11965;53.640;10.050;2023-01-23T07:41:03;11.58;;;11.56;;
23573;SDS011;11965;53.640;10.050;2023-01-23T07:43:30;11.68;;;11.51;;
23573;SDS011;11965;53.640;10.050;2023-01-23T07:45:57;11.47;;;11.44;;
23573;SDS011;11965;53.640;10.050;2023-01-23T07:48:24;11.35;;;11.32;;
23573;SDS011;11965;53.640;10.050;2023-01-23T07:50:52;11.58;;;11.57;;
23573;SDS011;11965;53.640;10.050;2023-01-23T07:53:19;11.50;;;11.43;;
23573;SDS011;11965;53.640;10.050;2023-01-23T07:55:47;11.87;;;11.70;;
23573;SDS011;11965;53.640;10.050;2023-01-23T07:58:14;11.83;;;11.81;;
23573;SDS011;11965;53.640;10.050;2023-01-23T08:00:41;12.12;;;12.12;;
23573;SDS011;11965;53.640;10.050;2023-01-23T08:03:07;12.35;;;12.35;;
23573;SDS011;11965;53.640;10.050;2023-01-23T08:05:34;12.28;;;12.28;;
23573;SDS011;11965;53.640;10.050;2023-01-23T08:08:01;12.20;;;12.19;;
23573;SDS011;11965;53.640;10.050;2023-01-23T08:10:28;12.09;;;12.06;;
23573;SDS011;11965;53.640;10.050;2023-01-23T08:12:57;12.29;;;12.27;;
23573;SDS011;11965;53.640;10.050;2023-01-23T08:15:23;12.04;;;12.00;;
23573;SDS011;11965;53.640;10.050;2023-01-23T08:17:50;12.55;;;12.54;;
23573;SDS011;11965;53.640;10.050;2023-01-23T08:20:18;14.46;;;14.38;;
23573;SDS011;11965;53.640;10.050;2023-01-23T08:22:47;13.06;;;13.04;;
23573;SDS011;11965;53.640;10.050;2023-01-23T08:25:14;13.22;;;13.22;;
23573;SDS011;11965;53.640;10.050;2023-01-23T08:27:41;13.08;;;13.07;;
23573;SDS011;11965;53.640;10.050;2023-01-23T08:30:10;12.98;;;12.97;;
23573;SDS011;11965;53.640;10.050;2023-01-23T08:32:37;12.72;;;12.72;;
23573;SDS011;11965;53.640;10.050;2023-01-23T08:35:04;13.45;;;13.20;;
23573;SDS011;11965;53.640;10.050;2023-01-23T08:37:32;15.62;;;15.22;;
23573;SDS011;11965;53.640;10.050;2023-01-23T08:39:59;16.25;;;16.14;;
23573;SDS011;11965;53.640;10.050;2023-01-23T08:42:25;15.95;;;15.69;;
23573;SDS011;11965;53.640;10.050;2023-01-23T08:44:52;15.63;;;15.14;;
23573;SDS011;11965;53.640;10.050;2023-01-23T08:47:21;14.75;;;14.56;;
23573;SDS011;11965;53.640;10.050;2023-01-23T08:49:48;14.19;;;14.17;;
23573;SDS011;11965;53.640;10.050;2023-01-23T08:52:15;13.87;;;13.85;;
23573;SDS011;11965;53.640;10.050;2023-01-23T08:54:41;13.44;;;13.44;;
23573;SDS011;11965;53.640;10.050;2023-01-23T08:57:08;13.21;;;13.21;;
23573;SDS011;11965;53.640;10.050;2023-01-23T08:59:35;13.67;;;13.64;;
23573;SDS011;11965;53.640;10.050;2023-01-23T09:02:02;13.38;;;13.29;;
23573;SDS011;11965;53.640;10.050;2023-01-23T09:04:31;12.82;;;12.81;;
23573;SDS011;11965;53.640;10.050;2023-01-23T09:06:57;12.61;;;12.61;;
23573;SDS011;11965;53.640;10.050;2023-01-23T09:09:24;12.80;;;12.63;;
23573;SDS011;11965;53.640;10.050;2023-01-23T09:11:51;13.07;;;12.95;;
23573;SDS011;11965;53.640;10.050;2023-01-23T09:14:19;12.72;;;12.67;;
23573;SDS011;11965;53.640;10.050;2023-01-23T09:16:46;12.69;;;12.49;;
23573;SDS011;11965;53.640;10.050;2023-01-23T09:19:13;12.40;;;12.39;;
23573;SDS011;11965;53.640;10.050;2023-01-23T09:21:42;12.60;;;12.60;;
23573;SDS011;11965;53.640;10.050;2023-01-23T09:24:09;12.63;;;12.60;;
23573;SDS011;11965;53.640;10.050;2023-01-23T09:26:36;12.44;;;12.44;;
23573;SDS011;11965;53.640;10.050;2023-01-23T09:29:03;12.76;;;12.76;;
23573;SDS011;11965;53.640;10.050;2023-01-23T09:31:30;12.76;;;12.58;;
23573;SDS011;11965;53.640;10.050;2023-01-23T09:33:57;12.55;;;12.54;;
23573;SDS011;11965;53.640;10.050;2023-01-23T09:36:24;12.22;;;12.21;;
23573;SDS011;11965;53.640;10.050;2023-01-23T09:38:53;12.35;;;12.25;;
23573;SDS011;11965;53.640;10.050;2023-01-23T09:41:22;12.72;;;12.64;;
23573;SDS011;11965;53.640;10.050;2023-01-23T09:43:52;12.07;;;12.05;;
23573;SDS011;11965;53.640;10.050;2023-01-23T09:46:27;12.96;;;12.96;;
23573;SDS011;11965;53.640;10.050;2023-01-23T09:49:02;11.93;;;11.84;;
23573;SDS011;11965;53.640;10.050;2023-01-23T09:51:44;12.58;;;12.41;;
23573;SDS011;11965;53.640;10.050;2023-01-23T09:54:24;12.45;;;12.29;;
23573;SDS011;11965;53.640;10.050;2023-01-23T09:57:00;12.31;;;12.21;;
23573;SDS011;11965;53.640;10.050;2023-01-23T09:59:33;12.28;;;12.27;;
23573;SDS011;11965;53.640;10.050;2023-01-23T10:02:08;11.94;;;11.94;;
23573;SDS011;11965;53.640;10.050;2023-01-23T10:04:44;12.28;;;12.18;;
23573;SDS011;11965;53.640;10.050;2023-01-23T10:07:16;12.36;;;12.35;;
23573;SDS011;11965;53.640;10.050;2023-01-23T10:10:13;12.49;;;12.45;;
23573;SDS011;11965;53.640;10.050;2023-01-23T10:13:03;12.34;;;12.26;;
23573;SDS011;11965;53.640;10.050;2023-01-23T10:15:41;12.57;;;12.57;;
23573;SDS011;11965;53.640;10.050;2023-01-23T10:18:28;12.89;;;12.83;;
23573;SDS011;11965;53.640;10.050;2023-01-23T10:21:06;13.24;;;13.22;;
23573;SDS011;11965;53.640;10.050;2023-01-23T10:23:45;12.93;;;12.88;;
23573;SDS011;11965;53.640;10.050;2023-01-23T10:26:22;12.87;;;12.87;;
23573;SDS011;11965;53.640;10.050;2023-01-23T10:28:56;13.35;;;13.26;;
23573;SDS011;11965;53.640;10.050;2023-01-23T10:31:29;13.46;;;13.45;;
23573;SDS011;11965;53.640;10.050;2023-01-23T10:34:05;13.60;;;13.54;;
23573;SDS011;11965;53.640;10.050;2023-01-23T10:36:44;14.06;;;13.84;;
23573;SDS011;11965;53.640;10.050;2023-01-23T10:39:25;14.42;;;14.28;;
23573;SDS011;11965;53.640;10.050;2023-01-23T10:41:58;14.29;;;13.97;;
23573;SDS011;11965;53.640;10.050;2023-01-23T10:44:25;14.61;;;14.35;;
23573;SDS011;11965;53.640;10.050;2023-01-23T10:46:53;13.67;;;13.47;;
23573;SDS011;11965;53.640;10.050;2023-01-23T10:49:26;14.18;;;14.15;;
23573;SDS011;11965;53.640;10.050;2023-01-23T10:51:55;14.75;;;14.40;;
23573;SDS011;11965;53.640;10.050;2023-01-23T10:54:23;14.33;;;14.06;;
23573;SDS011;11965;53.640;10.050;2023-01-23T10:56:53;13.78;;;13.74;;
23573;SDS011;11965;53.640;10.050;2023-01-23T10:59:27;14.28;;;14.17;;
23573;SDS011;11965;53.640;10.050;2023-01-23T11:04:52;15.07;;;14.95;;
23573;SDS011;11965;53.640;10.050;2023-01-23T11:07:20;14.56;;;14.51;;
23573;SDS011;11965;53.640;10.050;2023-01-23T11:09:51;14.51;;;14.40;;
23573;SDS011;11965;53.640;10.050;2023-01-23T11:12:21;14.25;;;14.17;;
23573;SDS011;11965;53.640;10.050;2023-01-23T11:17:39;15.23;;;14.86;;
23573;SDS011;11965;53.640;10.050;2023-01-23T11:20:19;14.63;;;14.41;;
23573;SDS011;11965;53.640;10.050;2023-01-23T11:22:58;14.77;;;14.56;;
23573;SDS011;11965;53.640;10.050;2023-01-23T11:25:30;14.01;;;13.77;;
23573;SDS011;11965;53.640;10.050;2023-01-23T11:27:59;14.77;;;14.27;;
23573;SDS011;11965;53.640;10.050;2023-01-23T11:30:34;14.46;;;14.24;;
23573;SDS011;11965;53.640;10.050;2023-01-23T11:33:11;14.25;;;14.02;;
23573;SDS011;11965;53.640;10.050;2023-01-23T11:35:46;13.86;;;13.79;;
23573;SDS011;11965;53.640;10.050;2023-01-23T11:38:22;14.74;;;14.51;;
23573;SDS011;11965;53.640;10.050;2023-01-23T11:40:52;14.27;;;14.06;;
23573;SDS011;11965;53.640;10.050;2023-01-23T11:43:19;13.88;;;13.85;;
23573;SDS011;11965;53.640;10.050;2023-01-23T11:46:02;14.89;;;14.76;;
23573;SDS011;11965;53.640;10.050;2023-01-23T11:48:47;14.58;;;14.29;;
23573;SDS011;11965;53.640;10.050;2023-01-23T11:51:31;14.18;;;14.09;;
23573;SDS011;11965;53.640;10.050;2023-01-23T11:54:10;14.53;;;14.50;;
23573;SDS011;11965;53.640;10.050;2023-01-23T11:57:04;14.06;;;13.86;;
23573;SDS011;11965;53.640;10.050;2023-01-23T11:59:45;14.08;;;13.87;;
23573;SDS011;11965;53.640;10.050;2023-01-23T12:02:49;14.33;;;14.07;;
23573;SDS011;11965;53.640;10.050;2023-01-23T12:05:44;15.19;;;14.92;;
23573;SDS011;11965;53.640;10.050;2023-01-23T12:08:28;16.39;;;15.97;;
23573;SDS011;11965;53.640;10.050;2023-01-23T12:11:08;15.63;;;15.27;;
23573;SDS011;11965;53.640;10.050;2023-01-23T12:13:51;15.35;;;15.03;;
23573;SDS011;11965;53.640;10.050;2023-01-23T12:16:33;14.57;;;14.37;;
23573;SDS011;11965;53.640;10.050;2023-01-23T12:19:20;15.16;;;15.02;;
23573;SDS011;11965;53.640;10.050;2023-01-23T12:22:04;14.47;;;14.34;;
23573;SDS011;11965;53.640;10.050;2023-01-23T12:24:47;14.90;;;14.72;;
23573;SDS011;11965;53.640;10.050;2023-01-23T12:27:27;14.50;;;14.26;;
23573;SDS011;11965;53.640;10.050;2023-01-23T12:30:21;14.90;;;14.86;;
23573;SDS011;11965;53.640;10.050;2023-01-23T12:33:11;15.65;;;15.20;;
23573;SDS011;11965;53.640;10.050;2023-01-23T12:35:53;15.66;;;15.32;;
23573;SDS011;11965;53.640;10.050;2023-01-23T12:38:35;15.59;;;15.28;;
23573;SDS011;11965;53.640;10.050;2023-01-23T12:41:19;14.87;;;14.79;;
23573;SDS011;11965;53.640;10.050;2023-01-23T12:44:03;14.47;;;14.46;;
23573;SDS011;11965;53.640;10.050;2023-01-23T12:46:39;15.22;;;15.02;;
23573;SDS011;11965;53.640;10.050;2023-01-23T12:49:22;15.94;;;15.42;;
23573;SDS011;11965;53.640;10.050;2023-01-23T12:51:59;14.86;;;14.73;;
23573;SDS011;11965;53.640;10.050;2023-01-23T12:54:34;15.30;;;15.04;;
23573;SDS011;11965;53.640;10.050;2023-01-23T12:57:08;15.15;;;15.00;;
23573;SDS011;11965;53.640;10.050;2023-01-23T12:59:47;14.97;;;14.71;;
23573;SDS011;11965;53.640;10.050;2023-01-23T13:02:24;14.45;;;14.30;;
23573;SDS011;11965;53.640;10.050;2023-01-23T13:05:08;14.88;;;14.77;;
23573;SDS011;11965;53.640;10.050;2023-01-23T13:07:47;15.50;;;15.47;;
23573;SDS011;11965;53.640;10.050;2023-01-23T13:10:35;15.13;;;14.99;;
23573;SDS011;11965;53.640;10.050;2023-01-23T13:13:40;15.91;;;15.70;;
23573;SDS011;11965;53.640;10.050;2023-01-23T13:16:11;16.40;;;16.00;;
23573;SDS011;11965;53.640;10.050;2023-01-23T13:18:41;15.48;;;15.44;;
23573;SDS011;11965;53.640;10.050;2023-01-23T13:21:36;16.66;;;16.31;;
23573;SDS011;11965;53.640;10.050;2023-01-23T13:24:37;16.82;;;16.68;;
23573;SDS011;11965;53.640;10.050;2023-01-23T13:36:24;16.67;;;16.46;;
23573;SDS011;11965;53.640;10.050;2023-01-23T13:41:50;16.38;;;16.00;;
23573;SDS011;11965;53.640;10.050;2023-01-23T13:44:33;16.02;;;15.99;;
23573;SDS011;11965;53.640;10.050;2023-01-23T13:47:18;15.83;;;15.54;;
23573;SDS011;11965;53.640;10.050;2023-01-23T13:50:14;17.21;;;16.65;;
23573;SDS011;11965;53.640;10.050;2023-01-23T13:52:51;16.25;;;16.00;;
23573;SDS011;11965;53.640;10.050;2023-01-23T13:55:40;16.76;;;16.43;;
23573;SDS011;11965;53.640;10.050;2023-01-23T13:58:29;17.17;;;16.72;;
23573;SDS011;11965;53.640;10.050;2023-01-23T14:01:00;17.09;;;16.90;;
23573;SDS011;11965;53.640;10.050;2023-01-23T14:03:53;18.39;;;17.96;;
23573;SDS011;11965;53.640;10.050;2023-01-23T14:06:41;17.07;;;16.92;;
23573;SDS011;11965;53.640;10.050;2023-01-23T14:09:17;17.56;;;17.23;;
23573;SDS011;11965;53.640;10.050;2023-01-23T14:11:47;18.26;;;17.93;;
23573;SDS011;11965;53.640;10.050;2023-01-23T14:14:23;18.26;;;17.84;;
23573;SDS011;11965;53.640;10.050;2023-01-23T14:17:08;16.78;;;16.69;;
23573;SDS011;11965;53.640;10.050;2023-01-23T14:19:45;17.21;;;17.01;;
23573;SDS011;11965;53.640;10.050;2023-01-23T14:22:19;17.00;;;16.96;;
23573;SDS011;11965;53.640;10.050;2023-01-23T14:24:47;17.72;;;17.53;;
23573;SDS011;11965;53.640;10.050;2023-01-23T14:27:18;18.20;;;17.79;;
23573;SDS011;11965;53.640;10.050;2023-01-23T14:29:57;18.27;;;17.76;;
23573;SDS011;11965;53.640;10.050;2023-01-23T14:32:27;18.32;;;18.04;;
23573;SDS011;11965;53.640;10.050;2023-01-23T14:34:56;18.76;;;18.51;;
23573;SDS011;11965;53.640;10.050;2023-01-23T14:37:23;18.74;;;18.36;;
23573;SDS011;11965;53.640;10.050;2023-01-23T14:39:52;18.82;;;18.50;;
23573;SDS011;11965;53.640;10.050;2023-01-23T14:42:25;19.64;;;19.34;;
23573;SDS011;11965;53.640;10.050;2023-01-23T14:44:57;18.44;;;18.25;;
23573;SDS011;11965;53.640;10.050;2023-01-23T14:47:29;18.02;;;17.97;;
23573;SDS011;11965;53.640;10.050;2023-01-23T14:49:59;18.57;;;18.27;;
23573;SDS011;11965;53.640;10.050;2023-01-23T14:52:28;18.48;;;18.34;;
23573;SDS011;11965;53.640;10.050;2023-01-23T14:54:58;18.93;;;18.57;;
23573;SDS011;11965;53.640;10.050;2023-01-23T14:57:25;20.04;;;19.62;;
23573;SDS011;11965;53.640;10.050;2023-01-23T14:59:55;19.49;;;19.18;;
23573;SDS011;11965;53.640;10.050;2023-01-23T15:02:25;19.98;;;19.91;;
23573;SDS011;11965;53.640;10.050;2023-01-23T15:05:05;19.26;;;19.06;;
23573;SDS011;11965;53.640;10.050;2023-01-23T15:07:33;19.14;;;18.90;;